MKJS/MBJ METAR and TAF weather

Enter ICAO airport designator
Station Type Date Time Source
MKJS METAR 2020/04/05 23:00 UTC NOAA

MKJS 052300Z 08012KT 9999 FEW022 BKN034 28/23 Q1013


Station Type Date Time Source
MKJS Decoded METAR 2020/04/05 23:00 UTC NOAA

Montego Bay / Sangster, Jamaica (MKJS) 18-30N 077-55W 8M
Apr 05, 2020 - 07:00 PM EDT / 2020.04.05 2300 UTC
Wind: from the E (080 degrees) at 14 MPH (12 KT):0
Visibility: greater than 7 mile(s):0
Sky conditions: mostly cloudy
Temperature: 82 F (28 C)
Dew Point: 73 F (23 C)
Relative Humidity: 74%
Pressure (altimeter): 29.91 in. Hg (1013 hPa)
ob: MKJS 052300Z 08012KT 9999 FEW022 BKN034 28/23 Q1013
cycle: 23

Station Type Date Time Source
MKJS TAF 2020/04/05 18:15 UTC NOAA

TAF MKJS 051715Z 0518/0618 06010KT 9999 FEW022
BECMG 0601/0603 12005KT
BECMG 0614/0616 05015KT

Example: see airport list